Time;durP1;ratioP1;P1;durP2;ratioP2;P2;SDS_P1;SDS_P2;PMS_P1;PMS_P2;Temp;Humidity;BMP_temperature;BMP_pressure;BME280_temperature;BME280_humidity;BME280_pressure;Samples;Min_cycle;Max_cycle;Signal;HPM_P1;HPM_P2
2022/03/01 00:01:38;;;;;;;18.40;10.73;;;4.40;24.10;;;;;;5035586;28;20407;-77
2022/03/01 00:04:04;;;;;;;17.57;10.90;;;4.20;24.30;;;;;;5033038;28;20430;-77
2022/03/01 00:06:30;;;;;;;19.77;11.50;;;4.20;24.10;;;;;;5037027;28;20422;-77
2022/03/01 00:08:55;;;;;;;16.70;9.88;;;4.20;25.70;;;;;;5034714;28;20807;-76
2022/03/01 00:11:22;;;;;;;17.10;10.48;;;4.20;26.70;;;;;;5031180;28;20919;-77
2022/03/01 00:13:47;;;;;;;17.95;10.35;;;4.10;24.70;;;;;;5013484;28;20387;-76
2022/03/01 00:16:13;;;;;;;18.53;10.77;;;4.10;26.70;;;;;;5032842;28;20437;-79
2022/03/01 00:18:39;;;;;;;17.70;10.50;;;4.00;25.90;;;;;;5031849;28;20765;-77
2022/03/01 00:21:04;;;;;;;19.27;10.97;;;3.90;27.00;;;;;;5026955;28;20407;-77
2022/03/01 00:23:30;;;;;;;17.15;9.32;;;3.90;26.90;;;;;;5010727;28;20825;-76
2022/03/01 00:25:56;;;;;;;17.30;9.77;;;4.00;26.50;;;;;;5014434;28;20406;-77
2022/03/01 00:28:21;;;;;;;15.90;9.97;;;3.80;26.30;;;;;;5031830;28;20490;-77
2022/03/01 00:30:47;;;;;;;16.73;10.17;;;3.80;27.40;;;;;;5020580;28;20411;-76
2022/03/01 00:33:13;;;;;;;17.90;10.53;;;3.90;27.40;;;;;;5041817;28;20399;-77
2022/03/01 00:35:38;;;;;;;18.00;10.60;;;3.90;26.50;;;;;;5039065;28;20394;-75
2022/03/01 00:38:04;;;;;;;17.92;10.25;;;3.80;27.00;;;;;;5032202;28;20402;-77
2022/03/01 00:40:29;;;;;;;17.38;10.10;;;3.80;27.30;;;;;;5026681;28;20399;-77
2022/03/01 00:42:55;;;;;;;17.80;10.83;;;3.70;26.30;;;;;;5031320;28;20403;-76
2022/03/01 00:45:20;;;;;;;18.23;10.53;;;3.60;27.60;;;;;;5016323;28;20410;-76
2022/03/01 00:47:46;;;;;;;19.20;10.50;;;3.60;27.40;;;;;;5035205;28;20513;-77
2022/03/01 00:50:11;;;;;;;18.50;11.20;;;3.60;27.90;;;;;;5033342;28;20426;-77
2022/03/01 00:52:37;;;;;;;17.13;10.27;;;3.60;28.20;;;;;;5033804;28;20411;-77
2022/03/01 00:55:03;;;;;;;17.65;10.40;;;3.60;27.40;;;;;;5036518;28;20395;-75
2022/03/01 00:57:29;;;;;;;17.60;10.65;;;3.60;27.10;;;;;;5033960;28;20471;-76
2022/03/01 00:59:54;;;;;;;18.33;10.20;;;3.70;26.70;;;;;;5009711;28;20441;-75
2022/03/01 01:02:20;;;;;;;19.08;10.43;;;3.70;26.60;;;;;;5030769;28;20398;-76
2022/03/01 01:04:45;;;;;;;18.23;10.48;;;3.70;27.30;;;;;;5014520;28;20414;-76
2022/03/01 01:07:11;;;;;;;19.05;10.70;;;3.70;26.80;;;;;;5032903;28;20446;-75
2022/03/01 01:09:36;;;;;;;17.23;10.57;;;3.70;27.50;;;;;;5031850;28;20772;-76
2022/03/01 01:12:04;;;;;;;21.63;11.70;;;3.80;27.00;;;;;;5032009;28;20799;-76
2022/03/01 01:14:30;;;;;;;18.42;10.48;;;3.80;26.70;;;;;;5019097;28;22072;-76
2022/03/01 01:16:55;;;;;;;17.40;10.77;;;3.90;27.00;;;;;;5045441;28;20395;-74
2022/03/01 01:19:21;;;;;;;16.37;10.60;;;3.90;26.80;;;;;;5026483;28;20466;-74
2022/03/01 01:24:31;;;;;;;16.87;10.37;;;3.70;26.60;;;;;;5045396;28;20472;-75
2022/03/01 01:26:56;;;;;;;18.58;10.70;;;3.70;27.30;;;;;;5042920;28;20438;-77
2022/03/01 01:29:22;;;;;;;17.27;10.82;;;3.70;26.70;;;;;;5034281;28;20406;-76
2022/03/01 01:31:48;;;;;;;19.73;11.03;;;3.80;26.50;;;;;;5037769;28;20418;-74
2022/03/01 01:34:13;;;;;;;17.67;10.00;;;3.80;27.30;;;;;;5039236;28;20403;-76
2022/03/01 01:36:39;;;;;;;20.03;11.00;;;3.80;25.80;;;;;;5021197;28;20427;-76
2022/03/01 01:39:04;;;;;;;19.33;11.17;;;3.90;25.60;;;;;;5021923;28;20437;-76
2022/03/01 01:41:30;;;;;;;16.40;10.37;;;3.90;27.60;;;;;;5036631;28;20803;-76
2022/03/01 01:43:56;;;;;;;16.88;10.38;;;3.80;27.30;;;;;;5035638;28;20395;-76
2022/03/01 01:46:21;;;;;;;15.50;10.10;;;3.90;26.80;;;;;;5039459;28;20401;-75
2022/03/01 01:48:47;;;;;;;17.33;11.25;;;3.80;26.80;;;;;;5036192;28;20891;-76
2022/03/01 01:51:13;;;;;;;15.82;10.45;;;3.80;27.50;;;;;;5033725;28;20445;-76
2022/03/01 01:53:39;;;;;;;19.23;10.68;;;3.80;27.50;;;;;;5034736;28;20391;-76
2022/03/01 01:56:05;;;;;;;18.40;10.30;;;4.00;27.70;;;;;;5031536;28;20474;-76
2022/03/01 01:58:30;;;;;;;17.55;10.25;;;4.10;26.30;;;;;;5037262;28;20398;-75
2022/03/01 02:00:56;;;;;;;18.13;10.63;;;4.10;26.90;;;;;;5038867;28;20399;-77
2022/03/01 02:03:21;;;;;;;17.27;10.60;;;4.10;27.20;;;;;;5039710;28;20401;-77
2022/03/01 02:05:47;;;;;;;15.73;10.40;;;4.00;26.40;;;;;;5041588;28;20438;-76
2022/03/01 02:08:12;;;;;;;14.13;9.27;;;3.90;26.90;;;;;;5041804;28;20425;-75
2022/03/01 02:10:38;;;;;;;19.33;10.82;;;4.00;27.60;;;;;;5042530;28;20489;-76
2022/03/01 02:13:03;;;;;;;22.58;10.48;;;4.00;26.40;;;;;;5034368;28;20402;-76
2022/03/01 02:15:29;;;;;;;16.80;9.80;;;4.10;26.50;;;;;;5029017;28;20392;-75
2022/03/01 02:17:55;;;;;;;17.77;10.30;;;4.00;25.10;;;;;;5042142;28;20438;-75
2022/03/01 02:20:23;;;;;;;17.17;10.30;;;4.10;25.10;;;;;;5043767;28;20403;-76
2022/03/01 02:22:54;;;;;;;17.10;10.50;;;4.00;24.90;;;;;;5041879;28;20398;-76
2022/03/01 02:25:19;;;;;;;15.77;9.97;;;3.90;24.90;;;;;;5042194;28;20764;-76
2022/03/01 02:27:45;;;;;;;16.27;9.82;;;3.90;25.60;;;;;;5022196;28;20402;-76
2022/03/01 02:30:11;;;;;;;13.52;9.30;;;4.10;24.70;;;;;;5040715;28;20478;-76
2022/03/01 02:32:38;;;;;;;16.17;10.20;;;4.10;25.20;;;;;;5039788;28;20501;-76
2022/03/01 02:35:05;;;;;;;17.52;9.80;;;4.10;24.70;;;;;;5036584;28;20719;-77
2022/03/01 02:37:31;;;;;;;22.30;10.20;;;4.10;24.70;;;;;;5042026;28;20398;-75
2022/03/01 02:39:57;;;;;;;14.53;9.20;;;4.00;24.80;;;;;;5038186;28;20745;-77
2022/03/01 02:42:22;;;;;;;16.33;10.18;;;4.00;24.70;;;;;;5035738;28;20402;-77
2022/03/01 02:44:49;;;;;;;18.55;10.02;;;4.00;24.40;;;;;;5034570;28;20448;-77
2022/03/01 02:47:16;;;;;;;17.58;10.23;;;3.90;25.30;;;;;;5034481;28;20398;-77
2022/03/01 02:49:42;;;;;;;16.88;10.13;;;3.90;25.20;;;;;;5034000;28;20532;-77
2022/03/01 02:52:08;;;;;;;17.60;10.07;;;4.00;25.10;;;;;;5032330;28;20451;-77
2022/03/01 02:54:34;;;;;;;15.63;9.43;;;4.10;24.60;;;;;;5011243;28;20922;-76
2022/03/01 02:57:01;;;;;;;16.52;9.90;;;4.10;25.50;;;;;;5034892;28;20406;-77
2022/03/01 02:59:28;;;;;;;16.20;10.10;;;4.10;25.00;;;;;;5034608;28;20395;-77
2022/03/01 03:01:55;;;;;;;16.93;10.60;;;4.10;23.90;;;;;;5034395;28;20395;-77
2022/03/01 03:04:20;;;;;;;16.45;9.60;;;4.10;24.20;;;;;;5034095;28;20457;-77
2022/03/01 03:06:46;;;;;;;14.63;9.50;;;4.30;24.70;;;;;;5016518;28;20399;-76
2022/03/01 03:09:11;;;;;;;17.83;9.80;;;4.40;23.70;;;;;;5034726;28;20411;-77
2022/03/01 03:11:37;;;;;;;17.30;10.37;;;4.30;23.10;;;;;;5035893;28;20433;-78
2022/03/01 03:14:03;;;;;;;15.67;9.50;;;4.20;22.90;;;;;;5005487;28;20433;-76
2022/03/01 03:16:29;;;;;;;16.52;9.70;;;4.20;23.80;;;;;;5039536;28;20392;-76
2022/03/01 03:18:54;;;;;;;17.08;9.57;;;4.20;23.20;;;;;;5033022;28;20399;-76
2022/03/01 03:21:20;;;;;;;16.40;9.80;;;4.30;24.00;;;;;;5032920;28;20897;-76
2022/03/01 03:23:45;;;;;;;17.30;9.80;;;4.20;23.80;;;;;;5032376;28;20399;-76
2022/03/01 03:26:11;;;;;;;18.97;9.47;;;4.20;24.30;;;;;;5032620;28;20394;-75
2022/03/01 03:28:37;;;;;;;17.27;10.27;;;4.10;24.10;;;;;;5032222;28;20914;-76
2022/03/01 03:31:03;;;;;;;18.05;9.57;;;4.10;24.00;;;;;;5026051;28;20407;-77
2022/03/01 03:33:28;;;;;;;15.40;9.80;;;4.20;24.20;;;;;;5030766;28;20440;-76
2022/03/01 03:35:54;;;;;;;18.90;10.60;;;4.20;23.60;;;;;;5031204;28;20404;-76
2022/03/01 03:38:20;;;;;;;20.05;10.13;;;4.20;24.40;;;;;;5031433;28;20398;-76
2022/03/01 03:40:46;;;;;;;16.90;9.60;;;4.20;23.80;;;;;;5013794;28;20395;-76
2022/03/01 03:43:12;;;;;;;16.55;10.23;;;4.20;23.10;;;;;;5032112;28;20395;-76
2022/03/01 03:45:38;;;;;;;16.50;9.60;;;4.30;23.30;;;;;;5031966;28;20456;-76
2022/03/01 03:48:04;;;;;;;16.23;9.35;;;4.20;23.30;;;;;;5032681;28;20429;-76
2022/03/01 03:50:29;;;;;;;17.77;9.60;;;4.30;22.40;;;;;;5030920;28;20472;-75
2022/03/01 03:52:55;;;;;;;14.13;9.18;;;4.30;23.00;;;;;;5032226;28;20394;-75
2022/03/01 03:55:21;;;;;;;13.35;9.15;;;4.40;23.00;;;;;;5035964;28;20541;-75
2022/03/01 03:57:46;;;;;;;16.93;9.77;;;4.40;22.20;;;;;;5037014;28;20541;-77
2022/03/01 04:00:16;;;;;;;20.70;9.80;;;4.40;22.20;;;;;;5037595;28;20433;-77
2022/03/01 04:02:44;;;;;;;15.98;9.52;;;4.40;22.20;;;;;;5033100;28;20445;-77
2022/03/01 04:05:12;;;;;;;16.15;8.93;;;4.60;22.50;;;;;;5033297;28;20765;-77
2022/03/01 04:07:42;;;;;;;18.25;9.95;;;4.50;22.60;;;;;;5032951;28;20395;-77
2022/03/01 04:10:08;;;;;;;12.65;8.80;;;4.40;22.40;;;;;;5025629;28;20428;-77
2022/03/01 04:12:34;;;;;;;15.88;8.82;;;4.40;22.40;;;;;;5032134;28;20474;-77
2022/03/01 04:15:00;;;;;;;15.27;8.75;;;4.40;21.90;;;;;;5035116;28;20895;-76
2022/03/01 04:17:26;;;;;;;15.45;9.20;;;4.30;22.70;;;;;;5045298;28;20415;-76
2022/03/01 04:19:52;;;;;;;15.18;9.00;;;4.20;22.50;;;;;;5047645;28;20399;-75
2022/03/01 04:22:18;;;;;;;17.53;9.67;;;4.10;22.90;;;;;;5049359;28;20484;-76
2022/03/01 04:24:43;;;;;;;15.07;9.20;;;4.10;22.90;;;;;;5027010;28;20410;-77
2022/03/01 04:27:09;;;;;;;17.73;9.40;;;4.10;23.80;;;;;;5036120;28;20405;-77
2022/03/01 04:29:35;;;;;;;14.63;9.27;;;4.10;23.10;;;;;;5026525;28;20432;-76
2022/03/01 04:32:01;;;;;;;18.77;9.07;;;4.10;23.20;;;;;;5039919;28;20407;-76
2022/03/01 04:34:27;;;;;;;14.65;8.55;;;4.20;23.30;;;;;;5029452;28;20399;-77
2022/03/01 04:36:52;;;;;;;17.23;10.00;;;4.10;24.00;;;;;;5036307;28;20409;-77
2022/03/01 04:39:18;;;;;;;13.68;9.20;;;4.20;23.00;;;;;;5034533;28;20486;-79
2022/03/01 04:41:44;;;;;;;13.55;8.85;;;4.20;23.40;;;;;;5021640;28;20411;-74
2022/03/01 04:44:09;;;;;;;15.80;9.27;;;4.20;22.60;;;;;;5013607;28;20402;-75
2022/03/01 04:46:35;;;;;;;14.53;8.57;;;4.20;22.60;;;;;;5007755;28;20463;-76
2022/03/01 04:49:02;;;;;;;16.55;9.30;;;4.10;23.40;;;;;;5024680;28;20488;-74
2022/03/01 04:51:27;;;;;;;17.52;9.60;;;4.10;23.40;;;;;;5030507;28;20443;-76
2022/03/01 04:53:53;;;;;;;16.95;9.50;;;4.10;23.60;;;;;;5029779;28;20855;-75
2022/03/01 04:56:19;;;;;;;16.92;9.38;;;4.10;23.90;;;;;;5030364;28;20383;-75
2022/03/01 04:58:45;;;;;;;14.40;9.05;;;4.10;23.50;;;;;;5029667;28;21191;-76
2022/03/01 05:01:10;;;;;;;18.52;9.48;;;4.10;24.50;;;;;;5030404;28;20423;-75
2022/03/01 05:03:36;;;;;;;18.73;9.40;;;4.10;24.50;;;;;;5029813;28;20958;-75
2022/03/01 05:06:02;;;;;;;13.93;9.30;;;4.00;23.80;;;;;;5022642;28;20473;-74
2022/03/01 05:08:30;;;;;;;14.32;8.93;;;4.10;24.60;;;;;;5026094;28;20568;-77
2022/03/01 05:11:00;;;;;;;16.27;9.90;;;4.10;24.60;;;;;;5032485;28;20414;-75
2022/03/01 05:13:27;;;;;;;17.33;9.48;;;4.10;24.20;;;;;;5030939;28;20423;-76
2022/03/01 05:15:52;;;;;;;15.53;10.20;;;4.20;24.90;;;;;;5037576;28;20417;-75
2022/03/01 05:18:18;;;;;;;23.88;10.50;;;4.20;24.50;;;;;;5034092;28;20387;-75
2022/03/01 05:20:45;;;;;;;17.80;9.80;;;4.20;24.20;;;;;;5032037;28;20395;-77
2022/03/01 05:23:10;;;;;;;17.23;9.00;;;4.10;24.20;;;;;;5025777;28;20441;-75
2022/03/01 05:25:36;;;;;;;18.00;9.63;;;4.20;25.30;;;;;;5019225;28;20392;-76
2022/03/01 05:28:02;;;;;;;16.07;9.90;;;4.20;24.30;;;;;;5024521;28;20453;-76
2022/03/01 05:30:28;;;;;;;18.63;9.60;;;4.30;24.20;;;;;;5012497;28;20437;-76
2022/03/01 05:32:54;;;;;;;18.90;10.07;;;4.20;23.70;;;;;;5028838;28;20482;-75
2022/03/01 05:35:23;;;;;;;18.92;10.40;;;4.10;24.20;;;;;;5029533;28;20387;-75
2022/03/01 05:37:53;;;;;;;21.40;11.18;;;4.20;24.20;;;;;;5012430;28;20399;-76
2022/03/01 05:40:21;;;;;;;15.98;10.05;;;4.30;24.50;;;;;;5012583;28;20493;-77
2022/03/01 05:42:47;;;;;;;16.52;9.55;;;4.30;23.30;;;;;;5031278;28;20403;-77
2022/03/01 05:45:14;;;;;;;19.37;10.40;;;4.20;24.20;;;;;;5019551;28;20729;-77
2022/03/01 05:47:40;;;;;;;16.65;9.93;;;4.30;23.90;;;;;;5013701;28;20454;-77
2022/03/01 05:50:09;;;;;;;18.70;10.20;;;4.40;23.70;;;;;;5031583;28;20391;-76
2022/03/01 05:52:35;;;;;;;23.35;10.98;;;4.30;24.60;;;;;;5012689;28;20411;-76
2022/03/01 05:55:00;;;;;;;20.55;10.25;;;4.30;23.70;;;;;;5030542;28;20395;-76
2022/03/01 05:57:28;;;;;;;17.55;10.00;;;4.10;23.80;;;;;;5018267;28;20459;-75
2022/03/01 05:59:55;;;;;;;15.88;10.00;;;4.20;24.00;;;;;;5020679;28;20796;-75
2022/03/01 06:02:21;;;;;;;20.08;10.73;;;4.30;24.40;;;;;;5025822;28;20480;-76
2022/03/01 06:04:47;;;;;;;20.92;11.27;;;4.30;23.80;;;;;;5017139;28;20504;-77
2022/03/01 06:07:12;;;;;;;16.93;10.40;;;4.30;23.70;;;;;;5029998;28;20395;-74
2022/03/01 06:09:38;;;;;;;21.33;10.77;;;4.30;24.30;;;;;;5030346;28;20761;-74
2022/03/01 06:12:04;;;;;;;20.35;11.10;;;4.30;24.00;;;;;;5030508;28;20411;-76
2022/03/01 06:14:29;;;;;;;17.38;10.95;;;4.20;23.90;;;;;;5031496;28;20402;-75
2022/03/01 06:16:55;;;;;;;20.80;11.07;;;4.30;23.70;;;;;;5030183;28;20407;-76
2022/03/01 06:19:20;;;;;;;17.33;10.50;;;4.30;23.90;;;;;;5011840;28;20395;-76
2022/03/01 06:21:46;;;;;;;18.00;9.68;;;4.30;23.40;;;;;;5018029;28;20426;-76
2022/03/01 06:24:12;;;;;;;20.70;11.50;;;4.30;23.70;;;;;;5050648;28;20395;-76
2022/03/01 06:26:38;;;;;;;22.27;11.70;;;4.30;23.90;;;;;;5039239;28;20398;-76
2022/03/01 06:29:05;;;;;;;21.07;10.63;;;4.30;24.60;;;;;;5019593;28;20486;-75
2022/03/01 06:31:30;;;;;;;19.88;11.05;;;4.40;24.10;;;;;;5030734;28;20413;-75
2022/03/01 06:33:56;;;;;;;20.13;10.98;;;4.30;23.80;;;;;;5029834;28;20502;-74
2022/03/01 06:36:25;;;;;;;19.45;10.80;;;4.40;24.80;;;;;;5012455;28;20436;-76
2022/03/01 06:38:51;;;;;;;17.98;10.85;;;4.50;23.30;;;;;;5029644;28;21402;-76
2022/03/01 06:41:17;;;;;;;21.17;11.40;;;4.50;24.20;;;;;;5030003;28;20817;-76
2022/03/01 06:43:43;;;;;;;22.55;11.90;;;4.40;23.10;;;;;;5031422;28;20431;-77
2022/03/01 06:46:09;;;;;;;19.33;11.57;;;4.40;23.90;;;;;;5034326;28;20834;-76
2022/03/01 06:48:35;;;;;;;39.83;20.60;;;4.40;23.30;;;;;;5015595;28;20505;-77
2022/03/01 06:51:02;;;;;;;117.30;57.50;;;4.50;25.60;;;;;;5031942;28;20413;-76
2022/03/01 06:53:27;;;;;;;41.70;20.98;;;4.60;24.40;;;;;;5016108;28;20391;-76
2022/03/01 06:55:53;;;;;;;33.17;17.80;;;4.60;23.40;;;;;;5032701;28;20410;-75
2022/03/01 06:58:18;;;;;;;21.27;11.63;;;4.60;23.10;;;;;;5033854;28;20411;-76
2022/03/01 07:00:44;;;;;;;79.33;37.83;;;4.60;22.90;;;;;;5028833;28;20454;-76
2022/03/01 07:03:10;;;;;;;63.55;32.45;;;4.80;23.50;;;;;;5032142;28;20938;-76
2022/03/01 07:05:36;;;;;;;23.55;11.35;;;4.80;24.60;;;;;;5034309;28;20826;-75
2022/03/01 07:08:02;;;;;;;22.10;10.53;;;4.80;22.70;;;;;;5033215;28;20891;-75
2022/03/01 07:10:28;;;;;;;23.50;11.30;;;4.90;22.70;;;;;;5033363;28;20403;-75
2022/03/01 07:12:54;;;;;;;23.48;10.77;;;4.90;22.30;;;;;;5034586;28;20442;-77
2022/03/01 07:15:20;;;;;;;19.73;11.10;;;5.00;23.20;;;;;;5022183;28;20426;-77
2022/03/01 07:17:46;;;;;;;22.50;11.30;;;5.00;21.60;;;;;;5043298;28;20407;-76
2022/03/01 07:20:13;;;;;;;22.77;11.25;;;4.90;21.60;;;;;;5043745;28;20455;-76
2022/03/01 07:22:39;;;;;;;21.75;11.70;;;5.00;21.70;;;;;;5038600;28;20426;-76
2022/03/01 07:25:06;;;;;;;23.80;12.20;;;4.80;21.90;;;;;;5032219;28;20403;-76
2022/03/01 07:27:31;;;;;;;22.70;11.30;;;4.80;21.30;;;;;;5026000;28;20387;-76
2022/03/01 07:29:57;;;;;;;24.17;11.57;;;4.90;21.00;;;;;;5036168;28;20413;-76
2022/03/01 07:32:24;;;;;;;24.77;12.27;;;4.90;20.60;;;;;;5033051;28;20923;-75
2022/03/01 07:34:50;;;;;;;23.52;12.10;;;5.00;20.30;;;;;;5013226;28;20395;-77
2022/03/01 07:37:15;;;;;;;22.80;11.20;;;5.20;20.70;;;;;;5031172;28;20439;-75
2022/03/01 07:39:41;;;;;;;18.60;10.98;;;5.30;20.00;;;;;;5030901;28;20391;-75
2022/03/01 07:42:07;;;;;;;21.85;11.75;;;5.30;19.40;;;;;;5032841;28;20402;-75
2022/03/01 07:44:36;;;;;;;23.87;11.43;;;5.20;19.70;;;;;;5015821;28;20736;-76
2022/03/01 07:47:07;;;;;;;23.50;11.70;;;5.30;19.90;;;;;;5032364;28;20410;-76
2022/03/01 07:49:35;;;;;;;22.00;12.43;;;5.30;19.30;;;;;;5031828;28;20486;-76
2022/03/01 07:52:01;;;;;;;21.67;11.68;;;5.30;18.80;;;;;;5031937;28;20411;-76
2022/03/01 07:54:27;;;;;;;25.60;12.50;;;5.40;19.90;;;;;;5036699;28;20409;-76
2022/03/01 07:56:53;;;;;;;22.80;11.55;;;5.40;19.50;;;;;;5032331;28;20395;-76
2022/03/01 07:59:18;;;;;;;22.30;11.80;;;5.40;18.90;;;;;;5019212;28;20426;-76
2022/03/01 08:01:44;;;;;;;22.73;11.63;;;5.60;18.80;;;;;;5013173;28;20420;-77
2022/03/01 08:04:10;;;;;;;20.83;11.73;;;5.50;18.70;;;;;;5034709;28;20771;-77
2022/03/01 08:06:35;;;;;;;24.52;12.30;;;5.60;19.10;;;;;;5033580;28;20395;-77
2022/03/01 08:09:01;;;;;;;22.05;12.35;;;5.50;19.10;;;;;;5026989;28;20486;-78
2022/03/01 08:11:26;;;;;;;21.85;12.30;;;5.60;18.30;;;;;;5020598;28;20432;-75
2022/03/01 08:13:52;;;;;;;23.38;11.68;;;5.60;18.30;;;;;;5034900;28;21037;-75
2022/03/01 08:16:19;;;;;;;21.40;11.77;;;5.90;18.40;;;;;;5037795;28;20743;-77
2022/03/01 08:18:45;;;;;;;20.88;11.38;;;5.90;17.40;;;;;;5035711;28;20407;-77
2022/03/01 08:21:10;;;;;;;21.20;11.13;;;6.20;17.10;;;;;;5030752;28;20421;-77
2022/03/01 08:23:36;;;;;;;21.40;11.57;;;6.10;17.40;;;;;;5040938;28;20412;-77
2022/03/01 08:26:04;;;;;;;21.10;11.60;;;6.30;16.90;;;;;;5015311;28;20907;-76
2022/03/01 08:28:31;;;;;;;22.48;11.65;;;6.40;17.60;;;;;;5033789;28;20565;-76
2022/03/01 08:30:57;;;;;;;21.65;11.43;;;6.60;16.90;;;;;;5033513;28;20415;-78
2022/03/01 08:33:24;;;;;;;22.90;11.45;;;6.40;16.60;;;;;;5017817;28;20406;-78
2022/03/01 08:35:50;;;;;;;20.58;12.25;;;6.40;16.20;;;;;;5024023;28;20453;-74
2022/03/01 08:38:16;;;;;;;21.35;12.15;;;6.60;15.90;;;;;;5029933;28;20398;-74
2022/03/01 08:40:42;;;;;;;21.87;11.40;;;6.60;16.70;;;;;;5031079;28;20451;-75
2022/03/01 08:43:11;;;;;;;23.20;13.13;;;6.60;16.00;;;;;;5030122;28;20402;-74
2022/03/01 08:45:37;;;;;;;21.65;12.30;;;6.60;15.80;;;;;;5021140;28;20414;-74
2022/03/01 08:48:06;;;;;;;25.40;12.47;;;6.60;16.20;;;;;;5029847;28;20449;-74
2022/03/01 08:50:33;;;;;;;23.42;11.65;;;6.80;15.70;;;;;;5028388;28;20399;-74
2022/03/01 08:53:00;;;;;;;24.13;12.48;;;6.80;15.40;;;;;;5027341;28;20481;-72
2022/03/01 08:55:26;;;;;;;20.05;11.45;;;6.90;15.60;;;;;;5027676;28;20391;-74
2022/03/01 08:57:52;;;;;;;25.63;12.40;;;7.20;14.60;;;;;;5029639;28;20737;-75
2022/03/01 09:00:17;;;;;;;22.83;11.77;;;6.90;14.40;;;;;;5032554;28;20421;-75
2022/03/01 09:02:43;;;;;;;20.70;11.82;;;6.90;14.50;;;;;;5037386;28;20467;-76
2022/03/01 09:05:09;;;;;;;19.17;11.13;;;6.80;14.70;;;;;;5018420;28;20946;-77
2022/03/01 09:07:35;;;;;;;25.85;12.35;;;7.10;15.30;;;;;;5039100;28;20871;-76
2022/03/01 09:10:03;;;;;;;22.45;11.38;;;7.50;13.60;;;;;;5031544;28;20470;-76
2022/03/01 09:12:28;;;;;;;23.85;11.90;;;7.70;13.60;;;;;;5028961;28;20411;-76
2022/03/01 09:14:54;;;;;;;23.88;12.48;;;7.70;12.80;;;;;;5011555;28;20406;-75
2022/03/01 09:17:20;;;;;;;20.98;11.63;;;7.70;13.00;;;;;;5030137;28;20808;-76
2022/03/01 09:19:46;;;;;;;25.60;12.27;;;8.00;13.80;;;;;;5030109;28;20777;-76
2022/03/01 09:22:11;;;;;;;20.27;12.30;;;7.90;13.00;;;;;;5034464;28;20488;-77
2022/03/01 09:24:39;;;;;;;23.83;11.93;;;7.60;13.40;;;;;;5020343;28;20409;-78
2022/03/01 09:27:05;;;;;;;23.02;12.30;;;7.60;13.20;;;;;;5025750;28;20836;-76
2022/03/01 09:29:30;;;;;;;22.30;11.60;;;7.40;13.90;;;;;;5034828;28;20395;-79
2022/03/01 09:31:57;;;;;;;20.97;11.03;;;7.40;13.90;;;;;;5013855;28;20404;-75
2022/03/01 09:34:23;;;;;;;22.63;11.48;;;7.30;13.90;;;;;;5034746;28;20395;-78
2022/03/01 09:36:49;;;;;;;25.17;12.40;;;7.30;14.00;;;;;;5032109;28;20796;-78
2022/03/01 09:39:14;;;;;;;21.92;12.23;;;7.10;13.70;;;;;;5017718;28;20419;-74
2022/03/01 09:41:40;;;;;;;26.30;12.30;;;7.20;13.70;;;;;;5034406;28;20401;-75
2022/03/01 09:44:06;;;;;;;21.48;11.63;;;7.40;14.00;;;;;;5028064;28;20569;-75
2022/03/01 09:46:32;;;;;;;22.55;11.90;;;7.60;13.10;;;;;;5013213;28;20400;-76
2022/03/01 09:48:58;;;;;;;23.92;12.70;;;7.60;12.60;;;;;;5012902;28;20406;-74
2022/03/01 09:51:25;;;;;;;23.05;12.80;;;7.80;13.10;;;;;;4994896;28;20407;-76
2022/03/01 09:53:52;;;;;;;22.98;11.95;;;7.90;11.90;;;;;;5030645;28;20547;-75
2022/03/01 09:56:18;;;;;;;25.43;13.17;;;7.90;11.80;;;;;;5031237;28;20757;-75
2022/03/01 09:58:49;;;;;;;21.15;11.57;;;8.20;11.80;;;;;;5035405;28;20556;-75
2022/03/01 10:01:16;;;;;;;22.95;11.90;;;8.10;11.90;;;;;;5013613;28;20398;-76
2022/03/01 10:03:48;;;;;;;23.33;12.00;;;8.60;11.80;;;;;;5030527;28;20477;-76
2022/03/01 10:06:18;;;;;;;20.10;11.57;;;8.80;10.70;;;;;;5030508;28;20398;-75
2022/03/01 10:08:45;;;;;;;22.73;11.80;;;8.90;10.10;;;;;;5030777;28;20402;-76
2022/03/01 10:11:11;;;;;;;23.35;11.73;;;8.80;9.80;;;;;;5008931;28;20416;-76
2022/03/01 10:13:39;;;;;;;23.27;12.50;;;8.90;9.80;;;;;;5030749;28;20407;-77
2022/03/01 10:16:07;;;;;;;24.05;12.48;;;9.30;9.80;;;;;;5037752;28;20419;-77
2022/03/01 10:18:51;;;;;;;18.70;11.07;;;9.30;9.50;;;;;;5037980;28;20395;-77
2022/03/01 10:21:20;;;;;;;22.35;12.45;;;9.70;9.40;;;;;;5031373;28;20403;-77
2022/03/01 10:23:48;;;;;;;19.60;11.30;;;9.70;8.80;;;;;;5042423;28;20479;-77
2022/03/01 10:26:19;;;;;;;22.67;11.70;;;9.70;8.10;;;;;;5048279;28;20413;-77
2022/03/01 10:28:45;;;;;;;18.80;11.47;;;10.10;8.10;;;;;;5047345;28;20494;-77
2022/03/01 10:31:15;;;;;;;19.90;11.77;;;9.70;7.80;;;;;;5041789;28;20417;-77
2022/03/01 10:33:54;;;;;;;26.40;12.00;;;9.80;8.40;;;;;;5043491;28;20383;-76
2022/03/01 10:36:25;;;;;;;21.45;11.57;;;9.80;9.10;;;;;;5047324;28;20395;-76
2022/03/01 10:39:12;;;;;;;27.60;11.05;;;9.90;8.60;;;;;;5044741;28;20934;-76
2022/03/01 10:41:44;;;;;;;19.67;12.13;;;10.10;8.60;;;;;;5032590;28;20413;-76
2022/03/01 10:44:39;;;;;;;20.00;11.02;;;10.20;7.60;;;;;;5050770;28;20395;-76
2022/03/01 10:47:05;;;;;;;24.38;12.27;;;10.30;8.30;;;;;;5030983;28;20439;-76
2022/03/01 10:49:34;;;;;;;20.23;10.57;;;10.00;7.20;;;;;;5044530;28;20413;-75
2022/03/01 10:52:07;;;;;;;22.45;11.25;;;9.90;7.00;;;;;;5042027;28;20486;-76
2022/03/01 10:54:41;;;;;;;18.57;11.00;;;10.20;7.50;;;;;;5038262;28;20406;-77
2022/03/01 10:57:12;;;;;;;19.57;10.93;;;10.00;7.20;;;;;;5031720;28;20399;-76
2022/03/01 10:59:39;;;;;;;25.45;11.10;;;10.20;7.00;;;;;;5036630;28;20410;-76
2022/03/01 11:02:06;;;;;;;22.40;11.85;;;10.30;6.80;;;;;;5032955;28;20411;-75
2022/03/01 11:04:31;;;;;;;18.98;10.82;;;10.00;6.50;;;;;;5038581;28;20402;-76
2022/03/01 11:07:01;;;;;;;19.13;11.00;;;10.00;6.70;;;;;;5036169;28;20411;-76
2022/03/01 11:09:30;;;;;;;20.73;10.82;;;10.30;6.30;;;;;;5036986;28;20429;-76
2022/03/01 11:11:58;;;;;;;23.85;11.15;;;10.10;6.70;;;;;;5018395;28;20407;-76
2022/03/01 11:14:35;;;;;;;19.35;10.38;;;9.80;6.20;;;;;;5016838;28;20407;-77
2022/03/01 11:17:22;;;;;;;23.65;10.70;;;9.80;7.30;;;;;;5025542;28;20753;-76
2022/03/01 11:20:06;;;;;;;22.98;10.80;;;9.60;7.20;;;;;;5047385;28;20450;-77
2022/03/01 11:22:47;;;;;;;17.50;10.20;;;9.80;8.70;;;;;;5038146;28;20437;-76
2022/03/01 11:25:21;;;;;;;21.33;11.20;;;9.80;7.40;;;;;;5035385;28;20411;-77
2022/03/01 11:27:50;;;;;;;18.17;10.32;;;10.00;6.90;;;;;;5030299;28;20478;-75
2022/03/01 11:30:17;;;;;;;20.27;11.63;;;10.10;6.80;;;;;;5033229;28;20510;-76
2022/03/01 11:32:44;;;;;;;20.17;10.80;;;10.50;6.20;;;;;;5034730;28;20495;-77
2022/03/01 11:35:22;;;;;;;20.35;10.13;;;10.60;5.90;;;;;;5025949;28;20443;-77
2022/03/01 11:38:28;;;;;;;21.65;10.57;;;10.90;5.80;;;;;;5022928;28;20399;-78
2022/03/01 11:41:06;;;;;;;20.23;10.98;;;11.00;5.80;;;;;;4920080;29;20824;-77
2022/03/01 11:43:36;;;;;;;21.48;11.48;;;10.90;5.30;;;;;;4935631;29;20777;-77
2022/03/01 11:46:17;;;;;;;20.25;10.50;;;10.90;5.80;;;;;;4993050;28;20826;-77
2022/03/01 11:48:52;;;;;;;21.88;11.30;;;11.10;5.60;;;;;;5035424;28;20490;-78
2022/03/01 11:51:18;;;;;;;21.98;11.45;;;11.10;5.00;;;;;;5036307;28;20480;-78
2022/03/01 11:53:49;;;;;;;21.75;11.15;;;10.80;5.00;;;;;;5033011;28;20414;-77
2022/03/01 11:56:15;;;;;;;17.95;10.32;;;10.90;4.90;;;;;;5038567;28;20538;-77
2022/03/01 11:58:48;;;;;;;19.83;10.20;;;10.90;4.80;;;;;;5037747;28;20397;-77
2022/03/01 12:01:13;;;;;;;17.70;9.98;;;11.10;4.20;;;;;;5038152;28;20760;-76
2022/03/01 12:03:40;;;;;;;21.03;10.90;;;11.10;4.20;;;;;;5018325;28;20411;-77
2022/03/01 12:06:06;;;;;;;20.50;10.50;;;10.90;4.00;;;;;;5033184;28;20403;-77
2022/03/01 12:08:32;;;;;;;21.38;10.90;;;11.10;4.30;;;;;;5034568;28;20403;-79
2022/03/01 12:11:04;;;;;;;16.03;9.60;;;11.40;4.10;;;;;;5016613;28;20417;-77
2022/03/01 12:13:45;;;;;;;18.57;10.90;;;11.10;4.00;;;;;;5014841;28;20474;-76
2022/03/01 12:16:13;;;;;;;20.83;9.93;;;10.70;4.30;;;;;;5033433;28;20399;-77
2022/03/01 12:18:41;;;;;;;21.52;10.98;;;11.00;4.30;;;;;;5033010;28;20419;-76
2022/03/01 12:21:10;;;;;;;19.35;9.90;;;11.30;4.30;;;;;;5030396;28;20399;-76
2022/03/01 12:23:37;;;;;;;20.60;9.80;;;11.30;3.80;;;;;;5034782;28;20489;-77
2022/03/01 12:26:06;;;;;;;16.88;9.77;;;11.60;4.50;;;;;;5044264;28;20395;-78
2022/03/01 12:28:44;;;;;;;17.93;10.37;;;11.60;3.40;;;;;;5037315;28;20512;-78
2022/03/01 12:31:17;;;;;;;18.08;10.60;;;11.50;4.20;;;;;;5036396;28;20411;-77
2022/03/01 12:33:59;;;;;;;18.03;10.30;;;11.70;4.80;;;;;;5035711;28;20402;-77
2022/03/01 12:36:36;;;;;;;18.90;10.40;;;12.10;3.60;;;;;;5010309;28;20406;-75
2022/03/01 12:39:10;;;;;;;22.05;10.85;;;11.90;2.60;;;;;;5030015;28;20411;-76
2022/03/01 12:41:36;;;;;;;18.00;9.53;;;11.60;3.00;;;;;;5031919;28;20482;-75
2022/03/01 12:44:06;;;;;;;16.65;9.85;;;11.60;3.20;;;;;;5013450;28;20394;-76